FW0754 Weather Reports


Display with metric or nautical units.
time (UTC)temp
F
wind
direction
speed
MPH
gust
MPH
rain 1hr
in
rain 24hr
in
rain mn
in
humidity
%
barometer
mb
20190221164817 61 112 3.0 4.0 0.00 0.00 0.00 61 1020.5
20190221163817 59 90 4.0 7.0 0.00 0.00 0.00 66 1020.4
20190221162817 58 90 4.0 7.0 0.00 0.00 0.00 71 1020.3
20190221161817 56 90 4.0 6.0 0.00 0.00 0.00 77 1020.3
20190221160817 55 90 3.0 4.0 0.00 0.00 0.00 79 1020.2
20190221155816 54 112 3.0 3.0 0.00 0.00 0.00 81 1020.0
20190221154816 53 135 3.0 4.0 0.00 0.00 0.00 83 1019.8
20190221153817 52 112 3.0 4.0 0.00 0.00 0.00 85 1019.7
20190221152816 51 112 2.0 3.0 0.00 0.00 0.00 86 1019.7
20190221151817 50 90 1.0 2.0 0.00 0.00 0.00 86 1019.5
20190221150816 50 90 3.0 4.0 0.00 0.00 0.00 87 1019.4
20190221145817 49 90 3.0 3.0 0.00 0.00 0.00 87 1019.4
20190221144816 48 90 3.0 4.0 0.00 0.00 0.00 87 1019.1
20190221143816 47 90 3.0 4.0 0.00 0.00 0.00 87 1018.9
20190221142817 47 90 3.0 3.0 0.00 0.00 0.00 87 1018.7
20190221141816 47 90 2.0 3.0 0.00 0.00 0.00 87 1018.6
20190221140816 47 67 3.0 3.0 0.00 0.00 0.00 88 1018.5
20190221135816 47 45 2.0 3.0 0.00 0.00 0.00 88 1018.5
20190221134816 47 45 1.0 2.0 0.00 0.00 0.00 88 1018.2
20190221133816 48 22 2.0 3.0 0.00 0.00 0.00 87 1018.1
20190221132816 48 22 1.0 2.0 0.00 0.00 0.00 87 1018.0
20190221131817 48 0.0 1.0 0.00 0.00 0.00 87 1018.0
20190221130817 48 0.0 1.0 0.00 0.00 0.00 88 1017.8
20190221125817 48 22 2.0 2.0 0.00 0.00 0.00 88 1017.6
20190221124816 48 22 2.0 2.0 0.00 0.00 0.00 87 1017.5
20190221123817 48 0 1.0 2.0 0.00 0.00 0.00 87 1017.4
20190221122816 48 0.0 1.0 0.00 0.00 0.00 87 1017.2
20190221121816 48 0 2.0 3.0 0.00 0.00 0.00 87 1017.0
20190221120816 48 0.0 1.0 0.00 0.00 0.00 87 1016.9
20190221115816 48 0.0 1.0 0.00 0.00 0.00 87 1016.8
20190221114816 49 0 1.0 1.0 0.00 0.00 0.00 86 1016.8
20190221113817 49 0.0 1.0 0.00 0.00 0.00 86 1016.8
20190221112816 49 0 1.0 2.0 0.00 0.00 0.00 85 1016.8
20190221111816 49 0.0 0.0 0.00 0.00 0.00 85 1016.9
20190221110816 49 0.0 0.0 0.00 0.00 0.00 85 1017.0
20190221105817 49 0.0 0.0 0.00 0.00 0.00 85 1016.8
20190221104817 49 0.0 0.0 0.00 0.00 0.00 86 1016.6
20190221103816 49 0.0 1.0 0.00 0.00 0.00 86 1016.7
20190221102816 49 0.0 1.0 0.00 0.00 0.00 86 1016.9
20190221101817 49 0.0 0.0 0.00 0.00 0.00 86 1016.9
20190221100816 49 0.0 1.0 0.00 0.00 0.00 85 1016.7
20190221095816 49 0.0 0.0 0.00 0.00 0.00 85 1016.6
20190221094816 49 0.0 0.0 0.00 0.00 0.00 84 1016.7
20190221093816 49 0.0 0.0 0.00 0.00 0.00 83 1016.8
20190221092816 49 0.0 0.0 0.00 0.00 0.00 83 1017.0
20190221091816 50 0.0 0.0 0.00 0.00 0.00 82 1016.8
20190221090816 50 0.0 1.0 0.00 0.00 0.00 82 1017.0
20190221085816 50 0.0 1.0 0.00 0.00 0.00 82 1016.9
20190221084817 51 0.0 0.0 0.00 0.00 0.00 81 1016.9
20190221083816 51 0.0 0.0 0.00 0.00 0.00 80 1016.8
20190221082816 51 0.0 1.0 0.00 0.00 0.00 80 1017.1
20190221081816 51 0.0 0.0 0.00 0.00 0.00 79 1017.1
20190221080816 51 0.0 1.0 0.00 0.00 0.00 78 1017.1
20190221075816 52 0.0 0.0 0.00 0.00 0.00 77 1017.2
20190221074816 52 0.0 0.0 0.00 0.00 0.00 77 1017.3
20190221073816 52 0.0 0.0 0.00 0.00 0.00 76 1017.4
20190221072816 52 0.0 1.0 0.00 0.00 0.00 75 1017.7
20190221071816 52 0.0 1.0 0.00 0.00 0.00 74 1017.7
20190221070816 53 292 1.0 2.0 0.00 0.00 0.00 73 1017.9
20190221065817 53 292 2.0 2.0 0.00 0.00 0.00 72 1017.9
20190221064816 53 292 1.0 3.0 0.00 0.00 0.00 72 1017.8
20190221063816 53 292 1.0 2.0 0.00 0.00 0.00 72 1017.6
20190221062816 53 270 2.0 3.0 0.00 0.00 0.00 71 1017.5
20190221061817 53 270 1.0 3.0 0.00 0.00 0.00 70 1017.6
20190221060816 54 337 1.0 2.0 0.00 0.00 0.00 69 1017.6
20190221055816 55 0.0 0.0 0.00 0.00 0.00 66 1017.5
20190221054816 56 0.0 0.0 0.00 0.00 0.00 65 1017.4
20190221053816 56 0.0 1.0 0.00 0.00 0.00 64 1017.4
20190221052816 56 0.0 1.0 0.00 0.00 0.00 63 1017.3
20190221051817 56 337 1.0 3.0 0.00 0.00 0.00 63 1017.5
20190221050816 56 315 2.0 3.0 0.00 0.00 0.00 63 1017.5
20190221045816 56 0 2.0 5.0 0.00 0.00 0.00 63 1017.6
20190221044816 56 315 2.0 3.0 0.00 0.00 0.00 64 1017.5
20190221043816 56 315 3.0 5.0 0.00 0.00 0.00 64 1017.7
20190221042816 56 292 3.0 5.0 0.00 0.00 0.00 64 1017.4
20190221041816 56 315 4.0 7.0 0.00 0.00 0.00 65 1017.4
20190221040816 56 315 2.0 3.0 0.00 0.00 0.00 65 1017.4
20190221035817 57 315 2.0 3.0 0.00 0.00 0.00 64 1017.2
20190221034816 57 315 2.0 3.0 0.00 0.00 0.00 64 1017.3
20190221033817 56 315 2.0 4.0 0.00 0.00 0.00 65 1017.1
20190221032816 56 292 2.0 3.0 0.00 0.00 0.00 66 1017.3
20190221031816 56 315 2.0 3.0 0.00 0.00 0.00 67 1017.1
20190221030816 57 315 1.0 2.0 0.00 0.00 0.00 67 1016.9
20190221025816 57 315 2.0 3.0 0.00 0.00 0.00 66 1017.0
20190221024816 57 315 2.0 4.0 0.00 0.00 0.00 64 1016.8
20190221023816 57 315 3.0 4.0 0.00 0.00 0.00 64 1016.8
20190221022816 57 315 3.0 4.0 0.00 0.00 0.00 63 1016.7
20190221021816 58 315 3.0 4.0 0.00 0.00 0.00 63 1016.6
20190221020816 58 315 3.0 4.0 0.00 0.00 0.00 61 1016.6
20190221015816 58 292 3.0 5.0 0.00 0.00 0.00 60 1016.6
20190221014816 59 292 3.0 4.0 0.00 0.00 0.00 57 1016.6
20190221013816 59 315 3.0 4.0 0.00 0.00 0.00 55 1016.6
20190221012815 60 292 3.0 4.0 0.00 0.00 0.00 54 1016.6
20190221011816 60 315 3.0 4.0 0.00 0.00 0.00 52 1016.5
20190221010816 61 315 4.0 7.0 0.00 0.00 0.00 51 1016.3
20190221005816 61 315 4.0 6.0 0.00 0.00 0.00 50 1016.4
20190221004816 62 315 4.0 6.0 0.00 0.00 0.00 48 1016.3
20190221003815 62 315 6.0 10.0 0.00 0.00 0.00 47 1016.3
20190221002815 62 292 4.0 8.0 0.00 0.00 0.00 46 1016.2
20190221001816 63 292 6.0 10.0 0.00 0.00 0.00 45 1016.3
20190221000816 63 315 4.0 7.0 0.00 0.00 0.00 46 1016.3
20190220235815 63 315 6.0 9.0 0.00 0.00 0.00 45 1016.4
20190220234816 64 315 5.0 8.0 0.00 0.00 0.00 43 1016.4
20190220233816 64 315 5.0 8.0 0.00 0.00 0.00 42 1016.5
20190220232815 65 315 8.0 12.0 0.00 0.00 0.00 41 1016.5
20190220231815 65 292 6.0 15.0 0.00 0.00 0.00 41 1016.4
20190220230815 66 315 8.0 13.0 0.00 0.00 0.00 40 1016.3
20190220225815 67 270 7.0 12.0 0.00 0.00 0.00 40 1016.3
20190220224815 68 292 5.0 9.0 0.00 0.00 0.00 40 1016.4
20190220223817 69 292 5.0 9.0 0.00 0.00 0.00 38 1016.5
20190220222816 70 315 3.0 6.0 0.00 0.00 0.00 37 1016.4
20190220221815 70 315 1.0 2.0 0.00 0.00 0.00 36 1016.4
20190220220815 70 315 3.0 4.0 0.00 0.00 0.00 35 1016.3
20190220215815 70 315 1.0 3.0 0.00 0.00 0.00 34 1016.4
20190220214815 70 0 2.0 3.0 0.00 0.00 0.00 34 1016.5
20190220213815 70 292 3.0 5.0 0.00 0.00 0.00 35 1016.4
20190220212815 70 315 3.0 4.0 0.00 0.00 0.00 35 1016.4
20190220211815 70 337 3.0 8.0 0.00 0.00 0.00 34 1016.7
20190220210816 70 292 4.0 9.0 0.00 0.00 0.00 37 1016.8
20190220205817 70 292 4.0 5.0 0.00 0.00 0.00 37 1017.1
20190220204817 70 337 4.0 7.0 0.00 0.00 0.00 37 1017.2
20190220203817 70 315 3.0 5.0 0.00 0.00 0.00 37 1017.5
20190220202817 70 247 5.0 7.0 0.00 0.00 0.00 41 1017.6
20190220201817 70 270 3.0 5.0 0.00 0.00 0.00 39 1017.8
20190220200817 70 292 5.0 9.0 0.00 0.00 0.00 38 1018.0
20190220195817 70 270 4.0 7.0 0.00 0.00 0.00 40 1018.2
20190220194817 70 292 5.0 7.0 0.00 0.00 0.00 38 1018.4
20190220193817 69 292 4.0 7.0 0.00 0.00 0.00 38 1018.5
20190220192818 69 270 4.0 7.0 0.00 0.00 0.00 40 1018.7
20190220191817 69 315 5.0 8.0 0.00 0.00 0.00 44 1018.9
20190220190817 68 292 6.0 9.0 0.00 0.00 0.00 45 1019.1
20190220185817 68 337 4.0 6.0 0.00 0.00 0.00 43 1019.1
20190220184817 68 315 6.0 10.0 0.00 0.00 0.00 44 1019.3
20190220183817 68 292 5.0 8.0 0.00 0.00 0.00 47 1019.4
20190220182817 68 315 4.0 5.0 0.00 0.00 0.00 46 1019.4
20190220181817 67 315 5.0 7.0 0.00 0.00 0.00 46 1019.7
20190220180818 67 315 4.0 7.0 0.00 0.00 0.00 48 1019.8
20190220175817 66 0 6.0 10.0 0.00 0.00 0.00 51 1020.1
20190220174817 65 315 4.0 5.0 0.00 0.00 0.00 52 1020.2
20190220173817 64 315 4.0 7.0 0.00 0.00 0.00 54 1020.3
20190220172817 64 337 3.0 4.0 0.00 0.00 0.00 55 1020.4
20190220171817 63 337 2.0 3.0 0.00 0.00 0.00 55 1020.5
20190220170817 62 315 1.0 3.0 0.00 0.00 0.00 56 1020.5
20190220165817 62 315 2.0 4.0 0.00 0.00 0.00 57 1020.3